Spring Hill, California
Current Conditions -  °F | °C
As of 8:40 AM on Monday 26 Jan 2015 (Local Time) from KGOO Reporting Station
Clear Clear  
Wind Chill: 15°   Ceiling: Unl
Heat Index: 15°   Visibility: 10mi
Dew Point: -2°   Wind: 0mph
Humidity: 31%   Direction: NA
Pressure: 30.09"   Gusts: NA
Location:  39.2183°N, 120.924°W
Report Text: KGOO 261640Z AUTO 00000KT 10SM CLR 15/M02 A3009 RMK AO1
Loading
Personal Weather Stations






























Interactive Weather Map New forecast layout! Learn more

10-Day Weather Forecast

Advertisements
Track Severe Weather on mobile